Airfield :
LOGIN :

Register | Disclaimer

   EN    FR    IT 

 










Legend :    VFR   Marginal VFR   IFR   Intensive IFR   Very Intensive IFR
Visi :
Ceiling :
>= 8 km
>= 3000ft
5 to 8 km
1000 to 3000 ft
1500m to 5 km
500 to 1000 ft
800 to 1500m
200 to 500 ft
< 800m
< 200 ft
Symbols :   Thunderstorms  Fog  Heavy snow  Heavy precipitations  Wind > 20 kt
SIGMETs :     Misc.  Thunderstorms  Icing  Turbulence  Mountain Waves  Volcanic Ashes







- Airport Elevation : 1504 ft
- IATA code : PNA


LEPP - Noain Pamplona

CURRENT METAR :
  • 150800Z VRB02KT 9999 FEW050TCU 16/14 Q1024

EXPIRED METARs :
  • 150730Z 00000KT 9999 FEW050TCU 15/13 Q1024
  • 150700Z 06003KT 300V090 9999 FEW050TCU 15/13 Q1024
  • 150630Z 02003KT 330V060 9999 -RA FEW050TCU 14/12 Q1024
  • 150600Z VRB01KT 9999 -RA FEW050CB 15/10 Q1024
  • 150530Z VRB02KT 9999 VCSH FEW050CB 15/11 Q1024
  • 150500Z VRB02KT 9999 FEW050CB 15/11 Q1024

TAF AMD TAF LEPP
Valid from the 15 at 05:00 until the 16 at 03:00 UTC


150531Z 1505/1603 14007KT 9999 FEW040 TX30/1515Z TN15/1505Z
TEMPO 1505/1603 SCT040TCU
PROB40
TEMPO 1505/1510 22012KT SHRA TS SCT025TCU SCT030CB
PROB40
TEMPO 1517/1522 18015G25KT SHRA TS SCT025CB SCT030TCU
PROB40
TEMPO 1522/1603 SHRA TS SCT025CB SCT030TCU
No reported NOTAMs for that airfield.



MET'MAP, your aeronautical weather chart ! - Copyright ORBIFLY December 2007 - Disclaimer

ORBIFLY MET'MAP TEAM :

Programming & Development : Alexandra Zaïnal
Concept & Development : Baudouin d'Aumeries
Co-Development & Prog : Marc-Olivier Méhu
Technical & hardware support : Manuel Goepfert

Contact : metmap@orbifly.com




SOURCES & CREDITS :

   NOAA